createdAt,value
2022-11-26T00:00:33.879Z,97634.22
2022-11-26T00:01:35.673Z,97630.66
2022-11-26T00:02:37.608Z,97629.84
2022-11-26T00:03:39.701Z,97640.03
2022-11-26T00:04:41.687Z,97647.78
2022-11-26T00:05:44.665Z,97636.47
2022-11-26T00:06:46.569Z,97641.34
2022-11-26T00:07:56.329Z,97638.91
2022-11-26T00:08:59.284Z,97640.97
2022-11-26T00:10:02.644Z,97641.81
2022-11-26T00:11:05.720Z,97649.59
2022-11-26T00:12:17.903Z,97654.44
2022-11-26T00:13:24.036Z,97656.88
2022-11-26T00:14:25.998Z,97657.41
2022-11-26T00:15:29.295Z,97656.41
2022-11-26T00:16:31.388Z,97656.25
2022-11-26T00:17:33.312Z,97657.06
2022-11-26T00:18:35.184Z,97650.94
2022-11-26T00:19:37.128Z,97651.09
2022-11-26T00:20:39.154Z,97651.88
2022-11-26T00:21:41.630Z,97656.25
2022-11-26T00:22:46.099Z,97650.94
2022-11-26T00:23:48.093Z,97652.53
2022-11-26T00:24:50.260Z,97652.88
2022-11-26T00:25:54.318Z,97653.97
2022-11-26T00:26:57.219Z,97656.75
2022-11-26T00:27:59.488Z,97661.09
2022-11-26T00:29:01.508Z,97669.03
2022-11-26T00:30:06.633Z,97679.06
2022-11-26T00:31:14.712Z,97678.25
2022-11-26T00:32:17.629Z,97679.72
2022-11-26T00:33:19.542Z,97686.56
2022-11-26T00:34:21.421Z,97677.00
2022-11-26T00:35:23.380Z,97684.25
2022-11-26T00:36:27.832Z,97683.59
2022-11-26T00:37:34.714Z,97690.41
2022-11-26T00:38:36.555Z,97686.84
2022-11-26T00:39:38.412Z,97690.09
2022-11-26T00:40:41.414Z,97686.03
2022-11-26T00:41:46.226Z,97693.16
2022-11-26T00:42:48.204Z,97690.56
2022-11-26T00:43:50.692Z,97687.47
2022-11-26T00:44:52.615Z,97684.06
2022-11-26T00:45:54.633Z,97690.19
2022-11-26T00:46:56.614Z,97690.66
2022-11-26T00:47:58.590Z,97690.53
2022-11-26T00:49:00.406Z,97698.16
2022-11-26T00:50:02.326Z,97705.25
2022-11-26T00:51:04.748Z,97699.25
2022-11-26T00:52:15.423Z,97698.94
2022-11-26T00:53:19.329Z,97703.00
2022-11-26T00:54:21.899Z,97707.91
2022-11-26T00:55:26.627Z,97702.72
2022-11-26T00:56:31.620Z,97699.94
2022-11-26T00:57:36.189Z,97693.97
2022-11-26T00:58:38.133Z,97697.22
2022-11-26T00:59:40.011Z,97697.22
2022-11-26T01:00:41.918Z,97698.00
2022-11-26T01:01:43.891Z,97710.31
2022-11-26T01:02:46.125Z,97713.06
2022-11-26T01:03:48.596Z,97705.44
2022-11-26T01:04:50.433Z,97701.06
2022-11-26T01:05:53.655Z,97703.00
2022-11-26T01:06:55.611Z,97705.75
2022-11-26T01:08:02.969Z,97706.22
2022-11-26T01:09:05.859Z,97708.00
2022-11-26T01:10:14.818Z,97702.00
2022-11-26T01:11:18.062Z,97698.44
2022-11-26T01:12:19.956Z,97707.00
2022-11-26T01:13:21.891Z,97704.81
2022-11-26T01:14:24.509Z,97706.81
2022-11-26T01:15:27.291Z,97712.31
2022-11-26T01:16:30.622Z,97713.94
2022-11-26T01:17:32.625Z,97715.41
2022-11-26T01:18:35.255Z,97709.94
2022-11-26T01:19:37.094Z,97717.56
2022-11-26T01:20:38.958Z,97719.03
2022-11-26T01:21:40.952Z,97725.53
2022-11-26T01:22:42.795Z,97726.03
2022-11-26T01:23:45.149Z,97729.16
2022-11-26T01:24:47.014Z,97721.09
2022-11-26T01:25:49.009Z,97713.16
2022-11-26T01:26:50.793Z,97726.41
2022-11-26T01:27:52.931Z,97724.19
2022-11-26T01:28:55.667Z,97729.00
2022-11-26T01:29:57.546Z,97727.41
2022-11-26T01:30:59.383Z,97728.66
2022-11-26T01:32:01.321Z,97720.22
2022-11-26T01:33:03.369Z,97728.34
2022-11-26T01:34:05.239Z,97728.72
2022-11-26T01:35:07.342Z,97720.63
2022-11-26T01:36:27.787Z,97722.94
2022-11-26T01:37:29.626Z,97721.66
2022-11-26T01:38:31.524Z,97729.16
2022-11-26T01:39:33.390Z,97723.81
2022-11-26T01:40:53.674Z,97730.50
2022-11-26T01:42:18.491Z,97724.34
2022-11-26T01:43:33.109Z,97718.66
2022-11-26T01:44:36.799Z,97717.94
2022-11-26T01:45:39.203Z,97714.28
2022-11-26T01:46:41.134Z,97721.47
2022-11-26T01:47:43.077Z,97714.59
2022-11-26T01:48:45.544Z,97725.56
2022-11-26T01:50:06.092Z,97722.97
2022-11-26T01:51:09.007Z,97733.53
2022-11-26T01:52:14.952Z,97734.84
2022-11-26T01:53:22.074Z,97730.19
2022-11-26T01:54:24.148Z,97730.19
2022-11-26T01:55:28.829Z,97731.81
2022-11-26T01:56:30.714Z,97732.25
2022-11-26T01:57:34.190Z,97728.19
2022-11-26T01:58:41.287Z,97732.13
2022-11-26T01:59:45.457Z,97738.75
2022-11-26T02:00:49.348Z,97745.25
2022-11-26T02:01:53.181Z,97751.09
2022-11-26T02:02:55.114Z,97743.34
2022-11-26T02:04:08.392Z,97738.84
2022-11-26T02:05:21.094Z,97742.91
2022-11-26T02:06:26.005Z,97744.03
2022-11-26T02:07:27.933Z,97743.00
2022-11-26T02:08:31.415Z,97743.94
2022-11-26T02:09:33.768Z,97741.06
2022-11-26T02:10:35.700Z,97744.97
2022-11-26T02:11:38.424Z,97755.19
2022-11-26T02:12:41.121Z,97755.75
2022-11-26T02:13:43.458Z,97759.78
2022-11-26T02:14:45.497Z,97754.47
2022-11-26T02:15:57.404Z,97752.84
2022-11-26T02:17:17.745Z,97761.97
2022-11-26T02:18:20.658Z,97764.56
2022-11-26T02:19:42.728Z,97765.94
2022-11-26T02:20:56.508Z,97755.44
2022-11-26T02:22:17.272Z,97753.50
2022-11-26T02:23:37.905Z,97753.97
2022-11-26T02:24:40.028Z,97759.47
2022-11-26T02:25:48.038Z,97759.47
2022-11-26T02:27:02.047Z,97762.38
2022-11-26T02:28:23.743Z,97758.53
2022-11-26T02:29:55.181Z,97752.69
2022-11-26T02:30:59.848Z,97747.97
2022-11-26T02:32:08.380Z,97749.06
2022-11-26T02:33:10.256Z,97741.94
2022-11-26T02:34:18.121Z,97746.66
2022-11-26T02:35:26.637Z,97741.47
2022-11-26T02:36:33.854Z,97743.38
2022-11-26T02:37:38.140Z,97759.72
2022-11-26T02:38:40.235Z,97754.78
2022-11-26T02:39:42.105Z,97754.56
2022-11-26T02:40:43.924Z,97749.53
2022-11-26T02:41:47.351Z,97757.00
2022-11-26T02:42:49.211Z,97762.53
2022-11-26T02:43:51.096Z,97763.78
2022-11-26T02:44:54.796Z,97765.88
2022-11-26T02:45:59.468Z,97766.84
2022-11-26T02:47:11.195Z,97773.34
2022-11-26T02:48:20.711Z,97772.09
2022-11-26T02:49:23.145Z,97767.19
2022-11-26T02:50:31.219Z,97774.81
2022-11-26T02:51:35.052Z,97781.03
2022-11-26T02:52:37.726Z,97772.81
2022-11-26T02:53:40.724Z,97780.13
2022-11-26T02:54:43.853Z,97776.28
2022-11-26T02:55:49.832Z,97788.13
2022-11-26T02:56:52.281Z,97793.16
2022-11-26T02:57:54.803Z,97793.16
2022-11-26T02:58:57.595Z,97782.78
2022-11-26T02:59:59.580Z,97785.22
2022-11-26T03:01:05.118Z,97788.34
2022-11-26T03:02:36.324Z,97793.25
2022-11-26T03:03:40.821Z,97794.72
2022-11-26T03:04:44.411Z,97793.75
2022-11-26T03:05:46.481Z,97793.63
2022-11-26T03:06:49.035Z,97794.41
2022-11-26T03:07:52.335Z,97794.72
2022-11-26T03:08:55.155Z,97796.13
2022-11-26T03:09:58.798Z,97793.53
2022-11-26T03:11:00.990Z,97799.38
2022-11-26T03:12:02.932Z,97799.66
2022-11-26T03:13:04.868Z,97797.91
2022-11-26T03:14:06.734Z,97801.81
2022-11-26T03:15:08.883Z,97803.31
2022-11-26T03:16:11.012Z,97811.59
2022-11-26T03:17:12.946Z,97801.09
2022-11-26T03:18:15.275Z,97813.22
2022-11-26T03:19:17.337Z,97810.47
2022-11-26T03:20:19.315Z,97806.94
2022-11-26T03:21:21.242Z,97797.69
2022-11-26T03:22:23.279Z,97790.66
2022-11-26T03:23:25.155Z,97802.75
2022-11-26T03:24:26.964Z,97810.31
2022-11-26T03:25:28.889Z,97800.78
2022-11-26T03:26:30.763Z,97799.66
2022-11-26T03:27:32.590Z,97806.34
2022-11-26T03:28:34.494Z,97801.97
2022-11-26T03:29:36.321Z,97802.63
2022-11-26T03:30:38.243Z,97798.13
2022-11-26T03:31:40.149Z,97794.41
2022-11-26T03:32:42.064Z,97797.53
2022-11-26T03:33:44.017Z,97794.94
2022-11-26T03:34:45.969Z,97800.94
2022-11-26T03:35:49.125Z,97794.00
2022-11-26T03:36:51.331Z,97804.19
2022-11-26T03:37:53.240Z,97799.84
2022-11-26T03:38:55.111Z,97799.00
2022-11-26T03:39:56.976Z,97799.84
2022-11-26T03:41:02.002Z,97796.41
2022-11-26T03:42:03.980Z,97799.00
2022-11-26T03:43:06.245Z,97794.00
2022-11-26T03:44:08.110Z,97796.88
2022-11-26T03:45:10.173Z,97798.50
2022-11-26T03:46:12.258Z,97810.47
2022-11-26T03:47:14.184Z,97805.31
2022-11-26T03:48:16.030Z,97794.13
2022-11-26T03:49:17.951Z,97795.25
2022-11-26T03:50:19.812Z,97796.78
2022-11-26T03:51:21.784Z,97800.09
2022-11-26T03:52:23.666Z,97806.56
2022-11-26T03:53:25.615Z,97807.81
2022-11-26T03:54:27.681Z,97801.44
2022-11-26T03:55:29.527Z,97802.56
2022-11-26T03:56:31.416Z,97801.63
2022-11-26T03:57:33.466Z,97808.41
2022-11-26T03:58:35.423Z,97804.41
2022-11-26T03:59:37.340Z,97800.56
2022-11-26T04:00:39.247Z,97796.41
2022-11-26T04:01:41.340Z,97798.69
2022-11-26T04:02:43.246Z,97798.41
2022-11-26T04:03:45.280Z,97802.63
2022-11-26T04:04:49.244Z,97809.44
2022-11-26T04:05:51.150Z,97806.19
2022-11-26T04:06:53.150Z,97812.16
2022-11-26T04:07:55.108Z,97813.25
2022-11-26T04:08:57.032Z,97810.31
2022-11-26T04:09:58.853Z,97814.97
2022-11-26T04:11:00.773Z,97813.88
2022-11-26T04:12:02.670Z,97819.03
2022-11-26T04:13:04.633Z,97813.06
2022-11-26T04:14:06.515Z,97816.31
2022-11-26T04:15:08.651Z,97819.03
2022-11-26T04:16:10.591Z,97822.28
2022-11-26T04:17:12.542Z,97811.13
2022-11-26T04:18:14.456Z,97821.50
2022-11-26T04:19:16.312Z,97815.03
2022-11-26T04:20:18.141Z,97821.22
2022-11-26T04:21:20.029Z,97822.69
2022-11-26T04:22:21.938Z,97817.13
2022-11-26T04:23:23.796Z,97826.16
2022-11-26T04:24:25.827Z,97819.88
2022-11-26T04:25:27.831Z,97816.84
2022-11-26T04:26:29.784Z,97825.94
2022-11-26T04:27:31.783Z,97819.81
2022-11-26T04:28:33.901Z,97817.22
2022-11-26T04:29:37.615Z,97824.69
2022-11-26T04:30:39.494Z,97827.94
2022-11-26T04:31:41.386Z,97822.09
2022-11-26T04:32:43.346Z,97822.78
2022-11-26T04:33:45.200Z,97827.94
2022-11-26T04:34:47.058Z,97829.59
2022-11-26T04:35:50.330Z,97834.59
2022-11-26T04:36:52.181Z,97830.94
2022-11-26T04:37:54.040Z,97831.72
2022-11-26T04:38:55.862Z,97837.72
2022-11-26T04:39:57.782Z,97838.53
2022-11-26T04:40:59.642Z,97833.66
2022-11-26T04:42:01.875Z,97837.94
2022-11-26T04:43:04.003Z,97843.69
2022-11-26T04:44:05.925Z,97845.31
2022-11-26T04:45:08.026Z,97845.19
2022-11-26T04:46:09.982Z,97848.56
2022-11-26T04:47:12.263Z,97842.44
2022-11-26T04:48:14.241Z,97843.41
2022-11-26T04:49:16.062Z,97851.69
2022-11-26T04:50:18.009Z,97856.44
2022-11-26T04:51:19.992Z,97856.31
2022-11-26T04:52:22.008Z,97854.53
2022-11-26T04:53:24.156Z,97860.69
2022-11-26T04:54:26.082Z,97863.28
2022-11-26T04:55:27.987Z,97867.34
2022-11-26T04:56:29.936Z,97866.34
2022-11-26T04:57:31.926Z,97864.44
2022-11-26T04:58:33.897Z,97865.09
2022-11-26T04:59:35.814Z,97869.91
2022-11-26T05:00:37.680Z,97866.34
2022-11-26T05:01:39.628Z,97873.31
2022-11-26T05:02:41.766Z,97871.41
2022-11-26T05:03:43.669Z,97872.88
2022-11-26T05:04:45.645Z,97876.13
2022-11-26T05:05:47.628Z,97868.22
2022-11-26T05:06:49.498Z,97868.88
2022-11-26T05:07:51.511Z,97871.59
2022-11-26T05:08:53.422Z,97876.28
2022-11-26T05:09:55.318Z,97879.03
2022-11-26T05:10:58.895Z,97877.25
2022-11-26T05:12:00.767Z,97874.50
2022-11-26T05:13:02.582Z,97876.28
2022-11-26T05:14:04.544Z,97870.06
2022-11-26T05:15:06.710Z,97871.03
2022-11-26T05:16:08.681Z,97877.56
2022-11-26T05:17:10.555Z,97872.06
2022-11-26T05:18:12.427Z,97877.25
2022-11-26T05:19:14.299Z,97886.94
2022-11-26T05:20:16.285Z,97880.16
2022-11-26T05:21:18.109Z,97878.50
2022-11-26T05:22:19.987Z,97877.56
2022-11-26T05:23:21.850Z,97881.41
2022-11-26T05:24:23.791Z,97880.75
2022-11-26T05:25:25.738Z,97887.53
2022-11-26T05:26:27.796Z,97884.13
2022-11-26T05:27:29.676Z,97883.88
2022-11-26T05:28:31.552Z,97888.03
2022-11-26T05:29:33.568Z,97892.22
2022-11-26T05:30:35.473Z,97890.16
2022-11-26T05:31:37.488Z,97896.66
2022-11-26T05:32:39.339Z,97900.47
2022-11-26T05:33:41.248Z,97896.63
2022-11-26T05:34:43.259Z,97894.56
2022-11-26T05:35:45.122Z,97900.41
2022-11-26T05:36:47.119Z,97900.41
2022-11-26T05:37:49.039Z,97892.50
2022-11-26T05:38:50.900Z,97897.50
2022-11-26T05:39:52.747Z,97891.25
2022-11-26T05:40:54.619Z,97888.94
2022-11-26T05:41:56.434Z,97894.13
2022-11-26T05:42:58.253Z,97901.75
2022-11-26T05:44:00.093Z,97900.94
2022-11-26T05:45:02.045Z,97903.22
2022-11-26T05:46:07.817Z,97909.06
2022-11-26T05:47:09.942Z,97900.78
2022-11-26T05:48:12.106Z,97910.13
2022-11-26T05:49:13.980Z,97908.94
2022-11-26T05:50:15.977Z,97908.25
2022-11-26T05:51:17.966Z,97914.41
2022-11-26T05:52:19.892Z,97915.78
2022-11-26T05:53:21.756Z,97914.13
2022-11-26T05:54:23.742Z,97916.88
2022-11-26T05:55:26.381Z,97916.06
2022-11-26T05:56:28.300Z,97919.47
2022-11-26T05:57:30.191Z,97922.03
2022-11-26T05:58:32.059Z,97915.91
2022-11-26T05:59:33.927Z,97911.53
2022-11-26T06:00:35.881Z,97915.25
2022-11-26T06:01:37.816Z,97918.44
2022-11-26T06:02:39.961Z,97917.31
2022-11-26T06:03:41.945Z,97920.56
2022-11-26T06:04:44.020Z,97927.00
2022-11-26T06:05:45.939Z,97929.47
2022-11-26T06:06:47.799Z,97929.16
2022-11-26T06:07:49.685Z,97931.31
2022-11-26T06:08:51.678Z,97937.06
2022-11-26T06:09:53.639Z,97933.03
2022-11-26T06:10:55.651Z,97940.00
2022-11-26T06:11:57.461Z,97933.78
2022-11-26T06:12:59.374Z,97942.50
2022-11-26T06:14:01.225Z,97935.69
2022-11-26T06:15:03.175Z,97940.88
2022-11-26T06:16:05.176Z,97944.13
2022-11-26T06:17:07.097Z,97961.03
2022-11-26T06:18:08.987Z,97952.00
2022-11-26T06:19:11.628Z,97958.53
2022-11-26T06:20:13.835Z,97953.03
2022-11-26T06:21:15.852Z,97953.03
2022-11-26T06:22:17.673Z,97956.34
2022-11-26T06:23:19.585Z,97954.88
2022-11-26T06:24:21.505Z,97954.34
2022-11-26T06:25:23.349Z,97964.84
2022-11-26T06:26:25.296Z,97962.13
2022-11-26T06:27:27.228Z,97963.91
2022-11-26T06:28:29.086Z,97961.03
2022-11-26T06:29:30.963Z,97961.53
2022-11-26T06:30:32.847Z,97960.47
2022-11-26T06:31:34.945Z,97963.72
2022-11-26T06:32:36.761Z,97959.47
2022-11-26T06:33:38.705Z,97967.91
2022-11-26T06:34:43.675Z,97966.97
2022-11-26T06:35:46.011Z,97971.19
2022-11-26T06:36:47.803Z,97969.69
2022-11-26T06:37:49.702Z,97975.69
2022-11-26T06:38:51.556Z,97969.03
2022-11-26T06:39:53.435Z,97979.09
2022-11-26T06:41:02.244Z,97979.75
2022-11-26T06:42:04.234Z,97986.72
2022-11-26T06:43:06.085Z,97987.38
2022-11-26T06:44:07.975Z,97987.91
2022-11-26T06:45:10.135Z,97990.38
2022-11-26T06:46:12.218Z,97989.41
2022-11-26T06:47:14.480Z,97985.84
2022-11-26T06:48:16.456Z,97984.88
2022-11-26T06:49:18.315Z,97996.88
2022-11-26T06:50:21.658Z,98000.28
2022-11-26T06:51:28.032Z,97997.84
2022-11-26T06:52:29.948Z,98002.88
2022-11-26T06:53:32.540Z,98007.78
2022-11-26T06:54:34.429Z,97999.16
2022-11-26T06:55:37.196Z,97996.59
2022-11-26T06:56:39.736Z,97995.91
2022-11-26T06:57:41.663Z,97996.38
2022-11-26T06:58:44.884Z,98000.34
2022-11-26T06:59:46.748Z,97999.16
2022-11-26T07:00:48.615Z,98009.50
2022-11-26T07:01:50.568Z,98005.84
2022-11-26T07:02:52.639Z,98004.06
2022-11-26T07:03:55.181Z,98009.91
2022-11-26T07:04:57.055Z,98007.19
2022-11-26T07:05:58.982Z,98013.03
2022-11-26T07:07:00.830Z,98007.84
2022-11-26T07:08:03.149Z,98013.16
2022-11-26T07:09:06.461Z,98019.00
2022-11-26T07:10:08.508Z,98016.13
2022-11-26T07:11:11.044Z,98024.41
2022-11-26T07:12:12.892Z,98023.34
2022-11-26T07:13:14.873Z,98019.63
2022-11-26T07:14:16.674Z,98025.47
2022-11-26T07:15:18.586Z,98026.16
2022-11-26T07:16:20.755Z,98022.88
2022-11-26T07:17:22.737Z,98025.94
2022-11-26T07:18:24.602Z,98026.19
2022-11-26T07:19:26.439Z,98031.66
2022-11-26T07:20:28.293Z,98037.44
2022-11-26T07:21:30.561Z,98031.22
2022-11-26T07:22:32.427Z,98034.59
2022-11-26T07:23:34.704Z,98038.53
2022-11-26T07:24:36.721Z,98032.25
2022-11-26T07:25:38.971Z,98031.16
2022-11-26T07:26:40.927Z,98032.78
2022-11-26T07:27:43.299Z,98030.50
2022-11-26T07:28:47.517Z,98039.88
2022-11-26T07:29:49.404Z,98050.25
2022-11-26T07:30:51.290Z,98045.06
2022-11-26T07:31:53.293Z,98041.53
2022-11-26T07:32:55.111Z,98042.34
2022-11-26T07:33:57.762Z,98036.03
2022-11-26T07:34:59.671Z,98030.84
2022-11-26T07:36:01.864Z,98039.31
2022-11-26T07:37:03.676Z,98040.84
2022-11-26T07:38:05.530Z,98044.97
2022-11-26T07:39:07.473Z,98042.53
2022-11-26T07:40:09.525Z,98046.91
2022-11-26T07:41:13.799Z,98048.53
2022-11-26T07:42:15.741Z,98045.56
2022-11-26T07:43:17.650Z,98039.56
2022-11-26T07:44:19.959Z,98036.66
2022-11-26T07:45:21.806Z,98034.59
2022-11-26T07:46:25.172Z,98041.72
2022-11-26T07:47:27.063Z,98045.56
2022-11-26T07:48:30.255Z,98046.34
2022-11-26T07:49:32.252Z,98043.78
2022-11-26T07:50:34.088Z,98047.03
2022-11-26T07:51:40.027Z,98043.78
2022-11-26T07:52:41.838Z,98055.25
2022-11-26T07:53:43.876Z,98053.63
2022-11-26T07:54:45.726Z,98046.09
2022-11-26T07:55:47.567Z,98050.19
2022-11-26T07:56:49.357Z,98043.94
2022-11-26T07:57:51.226Z,98037.78
2022-11-26T07:58:53.153Z,98047.19
2022-11-26T07:59:55.150Z,98040.38
2022-11-26T08:00:56.967Z,98041.19
2022-11-26T08:01:58.960Z,98040.78
2022-11-26T08:03:01.884Z,98047.97
2022-11-26T08:04:05.643Z,98044.13
2022-11-26T08:05:07.676Z,98048.06
2022-11-26T08:06:10.713Z,98042.28
2022-11-26T08:07:16.203Z,98040.22
2022-11-26T08:08:23.862Z,98047.81
2022-11-26T08:09:25.827Z,98048.28
2022-11-26T08:10:27.695Z,98051.44
2022-11-26T08:11:31.068Z,98055.16
2022-11-26T08:12:33.002Z,98060.16
2022-11-26T08:13:34.878Z,98055.53
2022-11-26T08:14:37.338Z,98052.34
2022-11-26T08:15:39.347Z,98054.44
2022-11-26T08:16:41.574Z,98059.88
2022-11-26T08:17:43.564Z,98060.56
2022-11-26T08:18:45.392Z,98055.78
2022-11-26T08:19:47.825Z,98051.09
2022-11-26T08:20:56.611Z,98055.84
2022-11-26T08:21:58.555Z,98056.22
2022-11-26T08:23:00.392Z,98050.09
2022-11-26T08:24:03.908Z,98050.75
2022-11-26T08:25:06.078Z,98051.56
2022-11-26T08:26:23.786Z,98051.25
2022-11-26T08:27:27.342Z,98055.78
2022-11-26T08:28:29.232Z,98054.81
2022-11-26T08:29:31.087Z,98047.03
2022-11-26T08:30:32.973Z,98061.63
2022-11-26T08:31:35.321Z,98057.09
2022-11-26T08:32:37.343Z,98061.34
2022-11-26T08:33:39.594Z,98063.63
2022-11-26T08:34:41.471Z,98065.28
2022-11-26T08:36:05.625Z,98064.31
2022-11-26T08:37:05.431Z,98070.47
2022-11-26T08:38:07.522Z,98068.97
2022-11-26T08:39:10.194Z,98065.06
2022-11-26T08:40:14.068Z,98076.22
2022-11-26T08:41:16.329Z,98069.41
2022-11-26T08:42:18.867Z,98062.28
2022-11-26T08:43:21.284Z,98064.59
2022-11-26T08:44:23.359Z,98061.03
2022-11-26T08:45:25.211Z,98061.34
2022-11-26T08:46:27.110Z,98062.47
2022-11-26T08:47:28.991Z,98066.81
2022-11-26T08:48:31.980Z,98066.44
2022-11-26T08:49:33.886Z,98064.81
2022-11-26T08:50:35.843Z,98072.16
2022-11-26T08:51:37.815Z,98064.88
2022-11-26T08:52:40.018Z,98069.78
2022-11-26T08:53:41.976Z,98068.31
2022-11-26T08:54:45.522Z,98070.91
2022-11-26T08:56:00.066Z,98067.88
2022-11-26T08:57:02.206Z,98063.22
2022-11-26T08:58:04.151Z,98067.94
2022-11-26T08:59:06.124Z,98072.69
2022-11-26T09:00:08.230Z,98067.22
2022-11-26T09:01:11.629Z,98070.59
2022-11-26T09:02:17.454Z,98076.78
2022-11-26T09:03:20.786Z,98081.97
2022-11-26T09:04:22.713Z,98086.31
2022-11-26T09:05:24.618Z,98093.28
2022-11-26T09:06:27.922Z,98087.44
2022-11-26T09:07:29.882Z,98083.06
2022-11-26T09:08:32.428Z,98087.06
2022-11-26T09:09:34.398Z,98086.41
2022-11-26T09:10:36.449Z,98090.09
2022-11-26T09:11:58.211Z,98095.13
2022-11-26T09:13:00.074Z,98092.09
2022-11-26T09:14:02.153Z,98088.56
2022-11-26T09:15:04.300Z,98086.75
2022-11-26T09:16:06.358Z,98088.56
2022-11-26T09:17:10.133Z,98089.94
2022-11-26T09:18:12.012Z,98094.59
2022-11-26T09:19:14.718Z,98103.06
2022-11-26T09:20:16.665Z,98096.09
2022-11-26T09:21:19.280Z,98102.78
2022-11-26T09:22:21.701Z,98092.84
2022-11-26T09:23:23.594Z,98090.38
2022-11-26T09:24:25.565Z,98089.28
2022-11-26T09:25:27.400Z,98094.84
2022-11-26T09:26:30.446Z,98094.69
2022-11-26T09:27:32.313Z,98088.56
2022-11-26T09:28:34.208Z,98098.47
2022-11-26T09:29:36.377Z,98092.63
2022-11-26T09:30:38.305Z,98091.94
2022-11-26T09:31:54.967Z,98088.81
2022-11-26T09:33:02.053Z,98091.28
2022-11-26T09:34:03.993Z,98087.75
2022-11-26T09:35:06.005Z,98091.00
2022-11-26T09:36:09.024Z,98091.00
2022-11-26T09:37:10.906Z,98087.75
2022-11-26T09:38:12.863Z,98091.66
2022-11-26T09:39:14.844Z,98096.19
2022-11-26T09:40:18.306Z,98091.00
2022-11-26T09:41:23.062Z,98096.47
2022-11-26T09:43:00.603Z,98090.47
2022-11-26T09:44:08.221Z,98084.69
2022-11-26T09:45:28.576Z,98091.22
2022-11-26T09:47:11.585Z,98082.19
2022-11-26T09:48:16.668Z,98090.63
2022-11-26T09:49:18.622Z,98091.75
2022-11-26T09:50:23.017Z,98094.63
2022-11-26T09:51:24.920Z,98088.09
2022-11-26T09:52:30.951Z,98089.22
2022-11-26T09:53:37.121Z,98083.34
2022-11-26T09:54:40.695Z,98082.25
2022-11-26T09:55:43.962Z,98089.50
2022-11-26T09:56:46.884Z,98087.75
2022-11-26T09:57:59.607Z,98088.03
2022-11-26T09:59:05.741Z,98091.13
2022-11-26T10:00:16.258Z,98087.56
2022-11-26T10:01:19.990Z,98088.25
2022-11-26T10:02:22.157Z,98087.44
2022-11-26T10:03:25.648Z,98090.56
2022-11-26T10:04:30.573Z,98084.38
2022-11-26T10:05:39.642Z,98087.38
2022-11-26T10:06:41.409Z,98083.66
2022-11-26T10:08:01.564Z,98085.13
2022-11-26T10:09:03.483Z,98086.63
2022-11-26T10:10:08.146Z,98084.84
2022-11-26T10:11:28.307Z,98091.50
2022-11-26T10:13:03.520Z,98098.34
2022-11-26T10:14:09.647Z,98096.75
2022-11-26T10:15:16.738Z,98095.16
2022-11-26T10:16:18.606Z,98091.88
2022-11-26T10:17:28.695Z,98093.06
2022-11-26T10:18:39.821Z,98092.47
2022-11-26T10:19:47.899Z,98089.44
2022-11-26T10:20:49.692Z,98093.81
2022-11-26T10:21:59.323Z,98091.22
2022-11-26T10:23:13.923Z,98088.50
2022-11-26T10:24:34.180Z,98091.56
2022-11-26T10:25:40.422Z,98089.66
2022-11-26T10:26:42.544Z,98083.97
2022-11-26T10:27:44.655Z,98091.56
2022-11-26T10:28:48.067Z,98095.97
2022-11-26T10:29:57.032Z,98095.81
2022-11-26T10:31:00.482Z,98100.34
2022-11-26T10:32:10.246Z,98098.41
2022-11-26T10:33:16.858Z,98109.13
2022-11-26T10:34:27.452Z,98110.47
2022-11-26T10:35:31.227Z,98107.59
2022-11-26T10:36:41.101Z,98106.63
2022-11-26T10:37:43.234Z,98099.00
2022-11-26T10:38:45.049Z,98103.53
2022-11-26T10:39:46.976Z,98104.34
2022-11-26T10:40:48.919Z,98115.53
2022-11-26T10:41:50.898Z,98111.13
2022-11-26T10:43:13.045Z,98111.97
2022-11-26T10:44:33.954Z,98113.31
2022-11-26T10:45:46.388Z,98104.41
2022-11-26T10:46:48.317Z,98102.69
2022-11-26T10:47:50.331Z,98108.19
2022-11-26T10:48:52.402Z,98106.53
2022-11-26T10:49:55.912Z,98101.22
2022-11-26T10:50:59.930Z,98100.25
2022-11-26T10:52:04.410Z,98095.06
2022-11-26T10:53:07.231Z,98097.50
2022-11-26T10:54:20.773Z,98096.22
2022-11-26T10:55:25.652Z,98102.09
2022-11-26T10:56:40.730Z,98094.31
2022-11-26T10:57:44.113Z,98097.41
2022-11-26T10:58:46.349Z,98100.53
2022-11-26T10:59:52.148Z,98095.50
2022-11-26T11:01:03.023Z,98103.59
2022-11-26T11:02:07.028Z,98099.88
2022-11-26T11:03:38.195Z,98095.81
2022-11-26T11:04:45.302Z,98095.94
2022-11-26T11:05:47.376Z,98096.91
2022-11-26T11:06:49.190Z,98098.53
2022-11-26T11:07:54.191Z,98108.59
2022-11-26T11:08:56.130Z,98111.88
2022-11-26T11:10:04.101Z,98113.50
2022-11-26T11:11:06.157Z,98111.59
2022-11-26T11:12:10.955Z,98109.66
2022-11-26T11:13:13.435Z,98109.50
2022-11-26T11:14:33.383Z,98119.09
2022-11-26T11:15:36.666Z,98112.25
2022-11-26T11:16:39.957Z,98108.69
2022-11-26T11:17:42.009Z,98112.38
2022-11-26T11:18:55.971Z,98115.44
2022-11-26T11:20:15.972Z,98116.72
2022-11-26T11:21:19.023Z,98114.72
2022-11-26T11:22:21.641Z,98111.97
2022-11-26T11:23:39.984Z,98110.03
2022-11-26T11:24:47.110Z,98117.31
2022-11-26T11:26:01.381Z,98112.25
2022-11-26T11:27:03.282Z,98112.25
2022-11-26T11:28:25.326Z,98110.66
2022-11-26T11:29:29.993Z,98116.63
2022-11-26T11:30:34.255Z,98115.97
2022-11-26T11:31:45.275Z,98117.31
2022-11-26T11:32:47.227Z,98111.81
2022-11-26T11:33:49.865Z,98114.91
2022-11-26T11:34:52.457Z,98120.78
2022-11-26T11:36:06.714Z,98119.59
2022-11-26T11:37:21.410Z,98111.97
2022-11-26T11:38:24.681Z,98114.72
2022-11-26T11:39:35.995Z,98118.25
2022-11-26T11:40:41.442Z,98117.00
2022-11-26T11:41:45.835Z,98114.91
2022-11-26T11:42:53.007Z,98112.72
2022-11-26T11:44:05.844Z,98121.44
2022-11-26T11:45:20.463Z,98118.72
2022-11-26T11:46:40.905Z,98116.41
2022-11-26T11:47:48.805Z,98118.19
2022-11-26T11:48:59.033Z,98119.50
2022-11-26T11:50:13.372Z,98118.72
2022-11-26T11:51:24.778Z,98111.88
2022-11-26T11:52:35.477Z,98130.41
2022-11-26T11:53:44.857Z,98119.22
2022-11-26T11:54:49.696Z,98121.81
2022-11-26T11:56:11.770Z,98125.50
2022-11-26T11:57:28.749Z,98119.66
2022-11-26T11:58:33.616Z,98121.16
2022-11-26T11:59:48.213Z,98133.16
2022-11-26T12:00:57.330Z,98122.63
2022-11-26T12:02:11.039Z,98123.16
2022-11-26T12:03:13.068Z,98123.63
2022-11-26T12:04:31.653Z,98127.16
2022-11-26T12:05:41.415Z,98121.97
2022-11-26T12:07:01.756Z,98121.97
2022-11-26T12:08:18.800Z,98124.28
2022-11-26T12:09:30.944Z,98114.84
2022-11-26T12:10:45.062Z,98120.31
2022-11-26T12:12:01.056Z,98118.31
2022-11-26T12:13:05.736Z,98116.72
2022-11-26T12:14:07.617Z,98116.84
2022-11-26T12:15:27.981Z,98116.03
2022-11-26T12:16:37.161Z,98110.41
2022-11-26T12:17:42.677Z,98118.72
2022-11-26T12:18:44.539Z,98113.22
2022-11-26T12:19:52.941Z,98117.44
2022-11-26T12:20:57.840Z,98107.19
2022-11-26T12:22:22.924Z,98120.03
2022-11-26T12:23:28.320Z,98115.13
2022-11-26T12:24:56.561Z,98103.13
2022-11-26T12:26:12.203Z,98112.19
2022-11-26T12:27:14.075Z,98108.94
2022-11-26T12:28:18.162Z,98111.81
2022-11-26T12:29:55.248Z,98109.06
2022-11-26T12:31:06.151Z,98112.47
2022-11-26T12:32:28.557Z,98112.19
2022-11-26T12:33:30.384Z,98115.13
2022-11-26T12:34:34.542Z,98107.06
2022-11-26T12:35:39.843Z,98109.38
2022-11-26T12:36:45.438Z,98103.19
2022-11-26T12:37:50.481Z,98105.13